Time;durP1;ratioP1;P1;durP2;ratioP2;P2;SDS_P1;SDS_P2;PMS_P1;PMS_P2;Temp;Humidity;BMP_temperature;BMP_pressure;BME280_temperature;BME280_humidity;BME280_pressure;Samples;Min_cycle;Max_cycle;Signal;HPM_P1;HPM_P2
2021/01/18 00:01:23;;;;;;;13.03;7.00;;;2.30;99.90;;;;;;5085733;28;20811;-76
2021/01/18 00:03:49;;;;;;;10.17;6.20;;;2.30;99.90;;;;;;5082120;28;20382;-76
2021/01/18 00:06:16;;;;;;;14.23;6.60;;;2.30;99.90;;;;;;5084448;28;20534;-76
2021/01/18 00:08:42;;;;;;;10.80;5.50;;;2.30;99.90;;;;;;5082848;28;20401;-75
2021/01/18 00:11:08;;;;;;;12.03;6.40;;;2.30;99.90;;;;;;5083527;28;20493;-76
2021/01/18 00:13:34;;;;;;;11.30;6.37;;;2.30;99.90;;;;;;5083945;28;20461;-75
2021/01/18 00:15:59;;;;;;;7.53;5.23;;;2.30;99.90;;;;;;5082293;28;20481;-76
2021/01/18 00:18:25;;;;;;;7.37;5.70;;;2.40;99.90;;;;;;5085278;28;20195;-75
2021/01/18 00:20:50;;;;;;;7.77;6.13;;;2.30;99.90;;;;;;5077523;28;20169;-76
2021/01/18 00:23:16;;;;;;;13.60;6.00;;;2.30;99.90;;;;;;5084472;28;20189;-76
2021/01/18 00:25:41;;;;;;;8.80;5.63;;;2.30;99.90;;;;;;5082573;28;20692;-75
2021/01/18 00:28:07;;;;;;;6.30;5.50;;;2.30;99.90;;;;;;5082957;28;20181;-76
2021/01/18 00:30:32;;;;;;;8.60;5.70;;;2.30;99.90;;;;;;5083722;28;20196;-75
2021/01/18 00:32:59;;;;;;;6.40;5.27;;;2.30;99.90;;;;;;5082264;28;20180;-77
2021/01/18 00:35:25;;;;;;;6.63;5.40;;;2.30;99.90;;;;;;5084889;28;20203;-76
2021/01/18 00:37:52;;;;;;;8.60;5.50;;;2.30;99.90;;;;;;5077321;28;20423;-76
2021/01/18 00:40:23;;;;;;;7.03;5.60;;;2.30;99.90;;;;;;5084084;28;20415;-77
2021/01/18 00:42:49;;;;;;;7.87;5.00;;;2.30;99.90;;;;;;5081383;28;20787;-76
2021/01/18 00:45:16;;;;;;;9.90;4.73;;;2.30;99.90;;;;;;5083848;28;20464;-76
2021/01/18 00:47:50;;;;;;;8.13;5.10;;;2.30;99.90;;;;;;5082163;28;20178;-76
2021/01/18 00:50:18;;;;;;;5.77;5.20;;;2.30;99.90;;;;;;5083741;28;20437;-75
2021/01/18 00:52:47;;;;;;;9.47;5.13;;;2.20;99.90;;;;;;5081855;28;20452;-76
2021/01/18 00:55:16;;;;;;;5.80;4.57;;;2.20;99.90;;;;;;5083072;28;20455;-76
2021/01/18 00:57:42;;;;;;;5.93;4.30;;;2.20;99.90;;;;;;5081996;28;20418;-76
2021/01/18 01:00:39;;;;;;;5.07;4.20;;;2.20;99.90;;;;;;5082220;28;20877;-75
2021/01/18 01:03:05;;;;;;;7.20;4.90;;;2.20;99.90;;;;;;5066868;28;20252;-75
2021/01/18 01:05:31;;;;;;;5.50;4.03;;;2.20;99.90;;;;;;5083285;28;20948;-76
2021/01/18 01:07:58;;;;;;;6.53;4.43;;;2.20;99.90;;;;;;5080852;28;20502;-76
2021/01/18 01:10:27;;;;;;;6.43;4.33;;;2.20;99.90;;;;;;5084190;28;20180;-76
2021/01/18 01:13:01;;;;;;;3.73;3.30;;;2.20;99.90;;;;;;5076833;28;20455;-76
2021/01/18 01:15:27;;;;;;;11.00;4.27;;;2.20;99.90;;;;;;5071269;28;20471;-76
2021/01/18 01:17:52;;;;;;;4.50;3.90;;;2.20;99.90;;;;;;5083814;28;20395;-76
2021/01/18 01:20:20;;;;;;;6.20;3.50;;;2.10;99.90;;;;;;5078321;28;20485;-76
2021/01/18 01:22:46;;;;;;;3.80;3.03;;;2.20;99.90;;;;;;5081062;28;20698;-76
2021/01/18 01:25:15;;;;;;;3.17;2.77;;;2.10;99.90;;;;;;5078137;28;21048;-76
2021/01/18 01:27:41;;;;;;;4.17;2.57;;;2.10;99.90;;;;;;5077166;28;20182;-76
2021/01/18 01:30:13;;;;;;;3.43;3.13;;;2.00;99.90;;;;;;5079517;28;20480;-76
2021/01/18 01:32:41;;;;;;;2.90;2.70;;;2.00;99.90;;;;;;5080466;28;20401;-76
2021/01/18 01:35:08;;;;;;;8.23;2.80;;;2.00;99.90;;;;;;5081264;28;20424;-76
2021/01/18 01:37:35;;;;;;;8.13;3.03;;;2.00;99.90;;;;;;5078283;28;20781;-76
2021/01/18 01:40:01;;;;;;;7.97;2.83;;;2.00;99.90;;;;;;5079420;28;20472;-76
2021/01/18 01:42:26;;;;;;;3.13;2.57;;;2.00;99.90;;;;;;5077886;28;20434;-77
2021/01/18 01:44:52;;;;;;;3.90;2.67;;;2.00;99.90;;;;;;5079936;28;20430;-76
2021/01/18 01:47:29;;;;;;;3.60;2.50;;;2.10;99.90;;;;;;5077187;28;20582;-76
2021/01/18 01:49:55;;;;;;;2.93;2.33;;;2.10;99.90;;;;;;5076170;28;20203;-76
2021/01/18 01:52:23;;;;;;;2.37;2.17;;;2.10;99.90;;;;;;5073951;28;20419;-76
2021/01/18 01:54:52;;;;;;;2.13;2.03;;;2.10;99.90;;;;;;5079702;28;20430;-77
2021/01/18 01:57:18;;;;;;;2.97;2.63;;;2.20;99.90;;;;;;5076697;28;20448;-76
2021/01/18 01:59:45;;;;;;;3.40;2.60;;;2.20;99.90;;;;;;5080285;28;20463;-76
2021/01/18 02:02:13;;;;;;;3.27;2.80;;;2.30;99.90;;;;;;5078445;28;20801;-76
2021/01/18 02:04:39;;;;;;;2.57;2.37;;;2.20;99.90;;;;;;5081204;28;21018;-77
2021/01/18 02:07:25;;;;;;;2.60;2.20;;;2.30;99.90;;;;;;5079718;28;20528;-77
2021/01/18 02:09:51;;;;;;;3.33;2.80;;;2.30;99.90;;;;;;5073045;28;20434;-76
2021/01/18 02:12:18;;;;;;;5.03;2.80;;;2.30;99.90;;;;;;5076330;28;20903;-76
2021/01/18 02:14:53;;;;;;;3.40;3.07;;;2.30;99.90;;;;;;5074085;28;20824;-76
2021/01/18 02:17:36;;;;;;;4.53;3.00;;;2.30;99.90;;;;;;5081574;28;20768;-76
2021/01/18 02:20:26;;;;;;;3.17;2.97;;;2.30;99.90;;;;;;5074653;28;20444;-76
2021/01/18 02:23:16;;;;;;;6.80;3.27;;;2.30;99.90;;;;;;5073316;28;20519;-76
2021/01/18 02:25:47;;;;;;;3.60;2.53;;;2.30;99.90;;;;;;5079448;28;20953;-76
2021/01/18 02:28:51;;;;;;;3.57;3.23;;;2.30;99.90;;;;;;5077386;28;20510;-76
2021/01/18 02:31:47;;;;;;;4.00;3.20;;;2.30;99.90;;;;;;5076827;28;20786;-76
2021/01/18 02:35:02;;;;;;;5.57;3.90;;;2.30;99.90;;;;;;5077162;28;20947;-76
2021/01/18 02:38:05;;;;;;;4.50;4.10;;;2.40;99.90;;;;;;5076455;28;20552;-77
2021/01/18 02:41:02;;;;;;;4.47;3.57;;;2.30;99.90;;;;;;5073771;28;20420;-76
2021/01/18 02:43:36;;;;;;;6.60;4.77;;;2.40;99.90;;;;;;5075891;28;20929;-76
2021/01/18 02:46:03;;;;;;;8.83;4.43;;;2.40;99.90;;;;;;5078448;28;20445;-76
2021/01/18 02:48:30;;;;;;;6.50;4.97;;;2.40;99.90;;;;;;5079345;28;20840;-76
2021/01/18 02:51:01;;;;;;;7.63;4.37;;;2.40;99.90;;;;;;5081646;28;20434;-77
2021/01/18 02:53:27;;;;;;;9.13;5.60;;;2.40;99.90;;;;;;5083402;28;20428;-77
2021/01/18 02:55:53;;;;;;;6.33;5.73;;;2.40;99.90;;;;;;5083108;28;20558;-77
2021/01/18 02:58:22;;;;;;;6.77;5.83;;;2.30;99.90;;;;;;5083447;28;20553;-77
2021/01/18 03:01:15;;;;;;;10.17;6.80;;;2.30;99.90;;;;;;5078864;28;20228;-77
2021/01/18 03:03:52;;;;;;;10.40;6.70;;;2.30;99.90;;;;;;5075102;28;20529;-76
2021/01/18 03:06:24;;;;;;;16.07;7.27;;;2.30;99.90;;;;;;5081170;28;20865;-77
2021/01/18 03:09:01;;;;;;;9.53;7.03;;;2.30;99.90;;;;;;5085983;28;20915;-76
2021/01/18 03:11:34;;;;;;;18.93;7.60;;;2.30;99.90;;;;;;5075298;28;20419;-76
2021/01/18 03:14:07;;;;;;;8.80;6.90;;;2.30;99.90;;;;;;5080677;28;20418;-76
2021/01/18 03:16:38;;;;;;;12.73;6.57;;;2.30;99.90;;;;;;5081473;28;20793;-76
2021/01/18 03:19:05;;;;;;;10.27;8.00;;;2.30;99.90;;;;;;5083785;28;20525;-76
2021/01/18 03:21:31;;;;;;;10.13;7.03;;;2.30;99.90;;;;;;5081535;28;20436;-76
2021/01/18 03:23:57;;;;;;;11.10;7.27;;;2.40;99.90;;;;;;5084771;28;20442;-77
2021/01/18 03:26:26;;;;;;;12.20;7.47;;;2.30;99.90;;;;;;5079186;28;20191;-76
2021/01/18 03:28:53;;;;;;;16.17;7.10;;;2.30;99.90;;;;;;5082638;28;20193;-76
2021/01/18 03:31:19;;;;;;;12.13;6.90;;;2.30;99.90;;;;;;5085921;28;20394;-76
2021/01/18 03:33:45;;;;;;;7.80;6.77;;;2.30;99.90;;;;;;5078542;28;20443;-78
2021/01/18 03:36:10;;;;;;;9.50;7.10;;;2.30;99.90;;;;;;5084027;28;20210;-76
2021/01/18 03:38:36;;;;;;;11.27;7.00;;;2.30;99.90;;;;;;5079168;28;20470;-76
2021/01/18 03:41:02;;;;;;;9.77;6.97;;;2.30;99.90;;;;;;5083102;28;20204;-77
2021/01/18 03:43:28;;;;;;;12.63;6.93;;;2.30;99.90;;;;;;5078321;28;20544;-77
2021/01/18 03:45:53;;;;;;;11.00;7.27;;;2.30;99.90;;;;;;5082750;28;20454;-77
2021/01/18 03:48:19;;;;;;;9.70;6.13;;;2.30;99.90;;;;;;5083156;28;20676;-77
2021/01/18 03:50:45;;;;;;;11.53;6.97;;;2.30;99.90;;;;;;5083061;28;20291;-76
2021/01/18 03:53:11;;;;;;;13.73;7.60;;;2.30;99.90;;;;;;5082168;28;20188;-76
2021/01/18 03:55:40;;;;;;;15.03;6.70;;;2.30;99.90;;;;;;5079469;28;20477;-77
2021/01/18 03:58:06;;;;;;;12.63;7.53;;;2.30;99.90;;;;;;5078606;28;20974;-78
2021/01/18 04:00:34;;;;;;;11.90;7.33;;;2.30;99.90;;;;;;5082454;28;20934;-77
2021/01/18 04:03:00;;;;;;;13.77;6.80;;;2.30;99.90;;;;;;5084403;28;20415;-77
2021/01/18 04:05:27;;;;;;;17.20;7.50;;;2.30;99.90;;;;;;5079540;28;20428;-76
2021/01/18 04:07:54;;;;;;;11.30;7.90;;;2.30;99.90;;;;;;5078199;28;20429;-76
2021/01/18 04:10:28;;;;;;;9.03;6.97;;;2.30;99.90;;;;;;5077241;28;20412;-76
2021/01/18 04:12:54;;;;;;;13.63;6.93;;;2.30;99.90;;;;;;5075327;28;20406;-76
2021/01/18 04:15:23;;;;;;;13.03;7.73;;;2.30;99.90;;;;;;5083085;28;20783;-77
2021/01/18 04:17:53;;;;;;;10.60;6.73;;;2.30;99.90;;;;;;5082037;28;20434;-76
2021/01/18 04:20:19;;;;;;;11.33;6.33;;;2.30;99.90;;;;;;5080832;28;20467;-76
2021/01/18 04:22:50;;;;;;;12.43;6.27;;;2.30;99.90;;;;;;5084137;28;20395;-77
2021/01/18 04:25:18;;;;;;;10.90;6.00;;;2.30;99.90;;;;;;5077633;28;20897;-77
2021/01/18 04:27:46;;;;;;;9.93;6.80;;;2.30;99.90;;;;;;5084138;28;20460;-77
2021/01/18 04:30:12;;;;;;;16.10;9.63;;;2.30;99.90;;;;;;5079099;28;20440;-76
2021/01/18 04:32:38;;;;;;;8.60;6.73;;;2.30;99.90;;;;;;5083190;28;20924;-77
2021/01/18 04:35:03;;;;;;;18.47;7.53;;;2.20;99.90;;;;;;5080275;28;20468;-76
2021/01/18 04:37:33;;;;;;;9.37;6.23;;;2.30;99.90;;;;;;5079353;28;20200;-77
2021/01/18 04:39:58;;;;;;;11.87;6.97;;;2.30;99.90;;;;;;5084216;28;20202;-76
2021/01/18 04:42:25;;;;;;;11.60;6.80;;;2.30;99.90;;;;;;5078996;28;20440;-76
2021/01/18 04:44:54;;;;;;;8.93;6.70;;;2.30;99.90;;;;;;5081183;28;20246;-76
2021/01/18 04:47:23;;;;;;;13.20;6.93;;;2.30;99.90;;;;;;5080302;28;20447;-76
2021/01/18 04:49:53;;;;;;;13.93;7.27;;;2.30;99.90;;;;;;5081192;28;20418;-77
2021/01/18 04:52:26;;;;;;;12.90;7.50;;;2.30;99.90;;;;;;5079412;28;20431;-78
2021/01/18 04:54:58;;;;;;;21.00;9.03;;;2.30;99.90;;;;;;5076730;28;20946;-77
2021/01/18 04:57:26;;;;;;;8.00;7.03;;;2.30;99.90;;;;;;5073139;28;20419;-77
2021/01/18 04:59:56;;;;;;;10.03;7.20;;;2.20;99.90;;;;;;5084245;28;20474;-76
2021/01/18 05:02:23;;;;;;;15.07;7.57;;;2.20;99.90;;;;;;5079665;28;20439;-76
2021/01/18 05:04:52;;;;;;;17.80;7.80;;;2.20;99.90;;;;;;5081412;28;20551;-76
2021/01/18 05:08:01;;;;;;;11.53;7.47;;;2.10;99.90;;;;;;5082864;28;20495;-76
2021/01/18 05:10:29;;;;;;;7.73;6.53;;;2.00;99.90;;;;;;5075334;28;20866;-76
2021/01/18 05:12:57;;;;;;;13.87;8.07;;;2.00;99.90;;;;;;5076735;28;20754;-76
2021/01/18 05:15:24;;;;;;;14.67;7.30;;;2.00;99.90;;;;;;5078165;28;20448;-76
2021/01/18 05:17:55;;;;;;;13.23;8.13;;;1.90;99.90;;;;;;5078835;28;20440;-77
2021/01/18 05:20:21;;;;;;;12.03;7.27;;;1.80;99.90;;;;;;5077594;28;20467;-76
2021/01/18 05:22:48;;;;;;;10.20;6.37;;;1.80;99.90;;;;;;5076368;28;20443;-76
2021/01/18 05:25:14;;;;;;;16.10;8.07;;;1.70;99.90;;;;;;5080742;28;20211;-76
2021/01/18 05:28:02;;;;;;;14.53;6.97;;;1.70;99.90;;;;;;5078912;28;21022;-76
2021/01/18 05:30:29;;;;;;;10.73;7.33;;;1.60;99.90;;;;;;5109008;27;20937;-77
2021/01/18 05:33:14;;;;;;;16.90;7.60;;;1.60;99.90;;;;;;5078743;28;20439;-76
2021/01/18 05:35:45;;;;;;;15.93;7.10;;;1.60;99.90;;;;;;5080182;28;20445;-76
2021/01/18 05:38:12;;;;;;;20.47;9.00;;;1.50;99.90;;;;;;5079806;28;20423;-76
2021/01/18 05:40:44;;;;;;;15.53;7.80;;;1.50;99.90;;;;;;5079232;28;20435;-76
2021/01/18 05:43:11;;;;;;;13.30;8.27;;;1.50;99.90;;;;;;5080674;28;20942;-76
2021/01/18 05:45:38;;;;;;;11.60;8.10;;;1.50;99.90;;;;;;5079571;28;20844;-76
2021/01/18 05:48:06;;;;;;;15.83;8.40;;;1.50;99.90;;;;;;5080955;28;20395;-76
2021/01/18 05:50:32;;;;;;;14.37;7.10;;;1.50;99.90;;;;;;5077179;28;20518;-76
2021/01/18 05:52:58;;;;;;;14.40;8.60;;;1.60;99.90;;;;;;5080039;28;20417;-76
2021/01/18 05:55:29;;;;;;;13.70;9.80;;;1.60;99.90;;;;;;5078060;28;20505;-76
2021/01/18 05:58:02;;;;;;;14.53;10.17;;;1.60;99.90;;;;;;5079196;28;20515;-76
2021/01/18 06:00:32;;;;;;;17.87;8.13;;;1.60;99.90;;;;;;5069518;28;20822;-76
2021/01/18 06:03:00;;;;;;;20.23;10.73;;;1.60;99.90;;;;;;5083105;28;20460;-76
2021/01/18 06:05:27;;;;;;;17.30;11.63;;;1.60;99.90;;;;;;5077487;28;20426;-76
2021/01/18 06:07:54;;;;;;;17.30;11.43;;;1.50;99.90;;;;;;5075600;28;20891;-76
2021/01/18 06:10:31;;;;;;;12.37;8.20;;;1.50;99.90;;;;;;5079446;28;20443;-76
2021/01/18 06:12:56;;;;;;;20.43;8.13;;;1.60;99.90;;;;;;5077087;28;20436;-77
2021/01/18 06:15:24;;;;;;;12.13;6.57;;;1.60;99.90;;;;;;5074512;28;20460;-77
2021/01/18 06:17:53;;;;;;;12.20;7.50;;;1.60;99.90;;;;;;5082438;28;20180;-76
2021/01/18 06:20:21;;;;;;;10.30;7.90;;;1.60;99.90;;;;;;5076465;28;20538;-76
2021/01/18 06:22:54;;;;;;;10.77;6.97;;;1.50;99.90;;;;;;5081357;28;20484;-76
2021/01/18 06:25:21;;;;;;;14.93;7.53;;;1.50;99.90;;;;;;5078466;28;20439;-76
2021/01/18 06:27:47;;;;;;;19.33;11.97;;;1.60;99.90;;;;;;5079757;28;20967;-76
2021/01/18 06:30:27;;;;;;;15.70;7.70;;;1.60;99.90;;;;;;5081473;28;20446;-76
2021/01/18 06:33:00;;;;;;;12.80;7.40;;;1.60;99.90;;;;;;5069184;28;20193;-76
2021/01/18 06:35:31;;;;;;;16.17;7.80;;;1.50;99.90;;;;;;5075738;28;20442;-76
2021/01/18 06:38:02;;;;;;;10.70;7.13;;;1.50;99.90;;;;;;5072927;28;20443;-77
2021/01/18 06:40:30;;;;;;;19.43;6.50;;;1.60;99.90;;;;;;5072595;28;20397;-76
2021/01/18 06:42:57;;;;;;;13.10;6.30;;;1.60;99.90;;;;;;5078022;28;20850;-76
2021/01/18 06:45:28;;;;;;;12.17;5.83;;;1.70;99.90;;;;;;5074936;28;20497;-76
2021/01/18 06:47:56;;;;;;;11.07;5.70;;;1.70;99.90;;;;;;5073775;28;21137;-76
2021/01/18 06:50:27;;;;;;;9.27;5.80;;;1.70;99.90;;;;;;5077147;28;20495;-76
2021/01/18 06:52:54;;;;;;;9.17;6.37;;;1.70;99.90;;;;;;5069574;28;20446;-76
2021/01/18 06:55:28;;;;;;;9.57;6.50;;;1.80;99.90;;;;;;5081448;28;20456;-75
2021/01/18 06:58:03;;;;;;;9.50;6.60;;;1.70;99.90;;;;;;5075716;28;20493;-76
2021/01/18 07:00:30;;;;;;;10.23;6.37;;;1.70;99.90;;;;;;5073715;28;20412;-77
2021/01/18 07:03:30;;;;;;;8.13;6.50;;;1.70;99.90;;;;;;5077505;28;20502;-76
2021/01/18 07:05:58;;;;;;;9.87;5.97;;;1.70;99.90;;;;;;5075239;28;20917;-76
2021/01/18 07:08:35;;;;;;;16.07;6.80;;;1.70;99.90;;;;;;5068398;28;20448;-72
2021/01/18 07:11:09;;;;;;;12.37;6.87;;;1.70;99.90;;;;;;5070259;28;20524;-72
2021/01/18 07:13:36;;;;;;;8.40;6.07;;;1.70;99.90;;;;;;5070626;28;20414;-72
2021/01/18 07:16:07;;;;;;;13.33;5.63;;;1.80;99.90;;;;;;5079319;28;20475;-72
2021/01/18 07:18:36;;;;;;;8.10;5.20;;;1.80;99.90;;;;;;5081470;28;20467;-71
2021/01/18 07:21:03;;;;;;;9.40;5.70;;;1.90;99.90;;;;;;5075742;28;21012;-72
2021/01/18 07:23:31;;;;;;;7.60;4.73;;;1.90;99.90;;;;;;5079002;28;20790;-74
2021/01/18 07:26:03;;;;;;;7.23;5.20;;;1.90;99.90;;;;;;5074371;28;20868;-74
2021/01/18 07:28:31;;;;;;;13.80;5.37;;;1.90;99.90;;;;;;5075806;28;20404;-74
2021/01/18 07:30:57;;;;;;;7.93;5.07;;;2.00;99.90;;;;;;5077103;28;20420;-74
2021/01/18 07:33:22;;;;;;;7.53;5.37;;;2.00;99.90;;;;;;5076570;28;20924;-75
2021/01/18 07:35:48;;;;;;;8.47;5.00;;;2.10;99.90;;;;;;5078136;28;20239;-74
2021/01/18 07:38:18;;;;;;;13.37;5.90;;;2.10;99.90;;;;;;5084768;28;20179;-74
2021/01/18 07:41:02;;;;;;;8.90;4.53;;;2.10;99.90;;;;;;5080040;28;20610;-75
2021/01/18 07:43:32;;;;;;;6.97;4.70;;;2.10;99.90;;;;;;5079846;28;20423;-74
2021/01/18 07:46:23;;;;;;;7.67;4.97;;;2.20;99.90;;;;;;5080690;28;20456;-74
2021/01/18 07:48:49;;;;;;;6.73;4.63;;;2.10;99.90;;;;;;5082261;28;20432;-74
2021/01/18 07:51:27;;;;;;;10.07;4.90;;;2.20;99.90;;;;;;5084311;28;20425;-74
2021/01/18 07:53:53;;;;;;;7.03;4.90;;;2.20;99.90;;;;;;5072311;28;20192;-74
2021/01/18 07:56:29;;;;;;;8.17;5.00;;;2.30;99.90;;;;;;5081862;28;20474;-74
2021/01/18 07:59:03;;;;;;;8.00;4.87;;;2.30;99.90;;;;;;5079931;28;20210;-75
2021/01/18 08:01:30;;;;;;;6.87;5.07;;;2.30;99.90;;;;;;5076686;28;20428;-74
2021/01/18 08:04:17;;;;;;;6.30;4.83;;;2.30;99.90;;;;;;5077417;28;20422;-75
2021/01/18 08:07:05;;;;;;;10.50;4.90;;;2.30;99.90;;;;;;5080310;28;20426;-74
2021/01/18 08:09:32;;;;;;;8.33;5.93;;;2.40;99.90;;;;;;5078990;28;20427;-75
2021/01/18 08:12:35;;;;;;;10.00;5.23;;;2.40;99.90;;;;;;5085239;28;20726;-74
2021/01/18 08:15:08;;;;;;;11.13;5.50;;;2.40;99.90;;;;;;5078933;28;20450;-74
2021/01/18 08:17:34;;;;;;;5.73;4.10;;;2.40;99.90;;;;;;5084002;28;20423;-75
2021/01/18 08:20:22;;;;;;;12.80;5.80;;;2.50;99.90;;;;;;5081673;28;20447;-73
2021/01/18 08:22:48;;;;;;;10.60;5.97;;;2.50;99.90;;;;;;5082160;28;20177;-74
2021/01/18 08:25:14;;;;;;;11.93;6.03;;;2.60;99.90;;;;;;5083529;28;20478;-74
2021/01/18 08:27:46;;;;;;;16.80;7.93;;;2.60;99.90;;;;;;5082985;28;20186;-74
2021/01/18 08:30:34;;;;;;;18.13;8.83;;;2.60;99.90;;;;;;5083200;28;20430;-74
2021/01/18 08:33:16;;;;;;;15.13;6.50;;;2.70;99.90;;;;;;5078383;28;20430;-75
2021/01/18 08:35:43;;;;;;;11.73;6.20;;;2.80;99.90;;;;;;5082705;28;20420;-74
2021/01/18 08:38:19;;;;;;;10.83;6.23;;;2.80;99.90;;;;;;5083002;28;20497;-73
2021/01/18 08:40:49;;;;;;;9.13;6.83;;;2.80;99.90;;;;;;5082066;28;20422;-74
2021/01/18 08:43:17;;;;;;;8.43;5.50;;;2.90;99.90;;;;;;5083640;28;20420;-73
2021/01/18 08:45:43;;;;;;;14.37;7.00;;;2.90;99.90;;;;;;5082163;28;20959;-74
2021/01/18 08:48:11;;;;;;;7.30;6.40;;;3.00;99.90;;;;;;5081514;28;20423;-74
2021/01/18 08:50:45;;;;;;;13.83;5.47;;;3.00;99.90;;;;;;5083164;28;20398;-74
2021/01/18 08:53:27;;;;;;;6.20;5.47;;;3.10;99.90;;;;;;5083031;28;20787;-75
2021/01/18 08:55:54;;;;;;;6.60;4.50;;;3.10;99.90;;;;;;5071884;28;20442;-75
2021/01/18 08:58:34;;;;;;;17.40;5.77;;;3.10;99.90;;;;;;5081903;28;20410;-74
2021/01/18 09:01:00;;;;;;;9.77;6.67;;;3.10;99.90;;;;;;5077291;28;20912;-74
2021/01/18 09:03:26;;;;;;;12.37;5.73;;;3.10;99.90;;;;;;5080659;28;20425;-75
2021/01/18 09:05:56;;;;;;;8.23;5.97;;;3.20;99.90;;;;;;5074490;28;20416;-75
2021/01/18 09:08:23;;;;;;;10.70;6.40;;;3.20;99.90;;;;;;5082120;28;20426;-74
2021/01/18 09:10:53;;;;;;;8.70;5.50;;;3.20;99.90;;;;;;5080791;28;20436;-74
2021/01/18 09:13:22;;;;;;;13.80;5.60;;;3.20;99.90;;;;;;5083644;28;20548;-74
2021/01/18 09:15:47;;;;;;;9.13;6.27;;;3.20;99.90;;;;;;5081228;28;21572;-74
2021/01/18 09:18:13;;;;;;;6.90;5.30;;;3.30;99.90;;;;;;5082621;28;20493;-74
2021/01/18 09:20:40;;;;;;;9.20;6.50;;;3.20;99.90;;;;;;5081929;28;20614;-74
2021/01/18 09:23:07;;;;;;;12.40;6.43;;;3.20;99.90;;;;;;5081655;28;20554;-74
2021/01/18 09:25:37;;;;;;;7.80;4.93;;;3.20;99.90;;;;;;5079132;28;20453;-74
2021/01/18 09:28:06;;;;;;;8.80;4.73;;;3.20;99.90;;;;;;5080846;28;20399;-74
2021/01/18 09:30:33;;;;;;;9.50;5.70;;;3.30;99.90;;;;;;5082323;28;20421;-74
2021/01/18 09:33:01;;;;;;;7.50;5.67;;;3.40;99.90;;;;;;5080309;28;20531;-75
2021/01/18 09:35:28;;;;;;;7.33;4.97;;;3.50;99.90;;;;;;5083610;28;20787;-74
2021/01/18 09:37:55;;;;;;;8.70;5.73;;;3.60;99.90;;;;;;5076127;28;20400;-74
2021/01/18 09:40:21;;;;;;;12.53;5.27;;;3.70;99.90;;;;;;5083196;28;20549;-74
2021/01/18 09:42:51;;;;;;;5.63;4.80;;;3.80;99.90;;;;;;5080734;28;20480;-74
2021/01/18 09:45:17;;;;;;;7.80;4.50;;;3.90;99.90;;;;;;5082836;28;20437;-74
2021/01/18 09:47:43;;;;;;;8.53;4.60;;;3.80;99.90;;;;;;5081112;28;20411;-75
2021/01/18 09:50:19;;;;;;;6.10;3.87;;;3.90;99.90;;;;;;5081172;28;20186;-75
2021/01/18 09:52:47;;;;;;;5.77;3.47;;;3.90;99.90;;;;;;5080768;28;20180;-75
2021/01/18 09:55:34;;;;;;;5.80;3.43;;;3.80;99.90;;;;;;5079880;28;20512;-75
2021/01/18 09:58:18;;;;;;;4.60;3.80;;;3.90;99.90;;;;;;5076593;28;20398;-74
2021/01/18 10:00:48;;;;;;;8.27;3.20;;;3.80;99.90;;;;;;5078443;28;20520;-75
2021/01/18 10:03:28;;;;;;;6.37;3.53;;;3.80;99.90;;;;;;5080964;28;20408;-74
2021/01/18 10:06:14;;;;;;;15.77;4.00;;;3.80;99.90;;;;;;5075454;28;20471;-74
2021/01/18 10:08:43;;;;;;;4.53;2.90;;;3.80;99.90;;;;;;5079344;28;20452;-74
2021/01/18 10:11:09;;;;;;;3.60;3.30;;;3.90;99.90;;;;;;5081379;28;20510;-75
2021/01/18 10:13:34;;;;;;;8.73;3.53;;;3.80;99.90;;;;;;5080555;28;20554;-75
2021/01/18 10:16:10;;;;;;;8.83;2.90;;;3.90;99.90;;;;;;5082542;28;21015;-73
2021/01/18 10:18:41;;;;;;;4.13;3.40;;;3.90;99.90;;;;;;5080391;28;20297;-75
2021/01/18 10:21:08;;;;;;;8.37;3.57;;;3.90;99.90;;;;;;5081896;28;20423;-74
2021/01/18 10:23:36;;;;;;;9.03;2.40;;;4.00;99.90;;;;;;5080529;28;20428;-75
2021/01/18 10:26:24;;;;;;;3.97;3.00;;;4.10;99.90;;;;;;5082294;28;20893;-75
2021/01/18 10:29:02;;;;;;;4.57;3.10;;;4.30;99.90;;;;;;5082260;28;20478;-74
2021/01/18 10:31:29;;;;;;;10.17;4.53;;;4.30;99.90;;;;;;5073063;28;20448;-74
2021/01/18 10:34:15;;;;;;;9.50;4.30;;;4.30;99.90;;;;;;5075209;28;20419;-74
2021/01/18 10:36:43;;;;;;;3.33;3.03;;;4.30;99.90;;;;;;5081040;28;20417;-75
2021/01/18 10:39:22;;;;;;;8.87;3.20;;;4.30;99.90;;;;;;5075351;28;20881;-74
2021/01/18 10:41:49;;;;;;;5.93;3.43;;;4.30;99.90;;;;;;5078269;28;20423;-74
2021/01/18 10:44:21;;;;;;;2.80;2.60;;;4.40;99.90;;;;;;5081364;28;20438;-74
2021/01/18 10:46:50;;;;;;;9.93;4.80;;;4.40;99.90;;;;;;5079781;28;20447;-74
2021/01/18 10:49:42;;;;;;;5.30;4.80;;;4.50;99.90;;;;;;5081656;28;20480;-74
2021/01/18 10:52:12;;;;;;;9.80;4.03;;;4.40;99.90;;;;;;5078445;28;20915;-76
2021/01/18 10:54:38;;;;;;;8.20;3.80;;;4.50;99.90;;;;;;5080771;28;20516;-74
2021/01/18 10:57:22;;;;;;;4.77;3.77;;;4.60;99.90;;;;;;5075643;28;20934;-74
2021/01/18 11:00:26;;;;;;;5.20;3.97;;;4.60;99.90;;;;;;5077875;28;20546;-75
2021/01/18 11:03:13;;;;;;;3.70;3.40;;;4.60;99.90;;;;;;5039446;28;20435;-74
2021/01/18 11:05:39;;;;;;;10.60;3.33;;;4.60;99.90;;;;;;5076373;28;20458;-75
2021/01/18 11:08:09;;;;;;;4.07;3.10;;;4.50;99.90;;;;;;5081461;28;20886;-74
2021/01/18 11:10:43;;;;;;;6.00;3.00;;;4.50;99.90;;;;;;5080279;28;20507;-74
2021/01/18 11:13:11;;;;;;;2.73;2.50;;;4.50;99.90;;;;;;5085062;28;20782;-74
2021/01/18 11:15:42;;;;;;;3.33;2.43;;;4.50;99.90;;;;;;5084146;28;20794;-74
2021/01/18 11:18:11;;;;;;;6.90;3.00;;;4.50;99.90;;;;;;5084697;28;20466;-74
2021/01/18 11:20:38;;;;;;;3.73;2.73;;;4.50;99.90;;;;;;5083719;28;20857;-74
2021/01/18 11:23:09;;;;;;;5.60;3.03;;;4.60;99.90;;;;;;5085261;28;20395;-74
2021/01/18 11:25:35;;;;;;;3.80;2.70;;;4.70;99.90;;;;;;5082674;28;20868;-74
2021/01/18 11:28:11;;;;;;;5.03;3.10;;;4.80;99.90;;;;;;5082860;28;20412;-74
2021/01/18 11:30:37;;;;;;;6.03;3.37;;;4.90;99.90;;;;;;5081452;28;20419;-73
2021/01/18 11:33:05;;;;;;;10.70;3.80;;;5.00;99.90;;;;;;5085058;28;20497;-73
2021/01/18 11:35:31;;;;;;;4.60;3.50;;;5.10;99.90;;;;;;5082754;28;20809;-74
2021/01/18 11:37:56;;;;;;;4.20;2.87;;;5.20;99.90;;;;;;5085843;28;20418;-74
2021/01/18 11:40:22;;;;;;;6.43;3.33;;;5.10;99.90;;;;;;5082171;28;20211;-74
2021/01/18 11:42:47;;;;;;;6.43;4.70;;;5.20;99.90;;;;;;5084886;28;20190;-75
2021/01/18 11:45:13;;;;;;;12.63;3.77;;;5.00;99.90;;;;;;5083457;28;20707;-74
2021/01/18 11:47:39;;;;;;;8.20;3.60;;;5.00;99.90;;;;;;5083591;28;20209;-73
2021/01/18 11:50:07;;;;;;;2.90;2.50;;;5.00;99.90;;;;;;5084482;28;20419;-74
2021/01/18 11:52:33;;;;;;;5.10;3.30;;;4.90;99.90;;;;;;5082910;28;20420;-73
2021/01/18 11:54:59;;;;;;;6.00;2.97;;;4.90;99.90;;;;;;5085065;28;20860;-74
2021/01/18 11:57:24;;;;;;;4.80;2.40;;;4.80;99.90;;;;;;5081692;28;20180;-74
2021/01/18 11:59:50;;;;;;;6.13;2.70;;;4.80;99.90;;;;;;5082036;28;20446;-74
2021/01/18 12:02:19;;;;;;;7.40;2.33;;;4.70;99.90;;;;;;5080500;28;20185;-74
2021/01/18 12:04:45;;;;;;;7.87;2.90;;;4.70;99.90;;;;;;5082445;28;20571;-73
2021/01/18 12:07:11;;;;;;;5.00;2.90;;;4.70;99.90;;;;;;5081691;28;20514;-74
2021/01/18 12:09:37;;;;;;;3.50;2.10;;;4.80;99.90;;;;;;5082639;28;20182;-75
2021/01/18 12:12:02;;;;;;;3.13;2.43;;;4.80;99.90;;;;;;5084622;28;20542;-74
2021/01/18 12:14:28;;;;;;;2.33;2.13;;;4.90;99.90;;;;;;5081793;28;20564;-75
2021/01/18 12:16:53;;;;;;;4.20;2.67;;;5.00;99.90;;;;;;5085016;28;20180;-74
2021/01/18 12:19:19;;;;;;;5.03;2.57;;;5.10;99.90;;;;;;5082163;28;20224;-74
2021/01/18 12:21:45;;;;;;;3.10;2.80;;;5.20;99.90;;;;;;5083257;28;20555;-75
2021/01/18 12:24:10;;;;;;;4.67;2.90;;;5.30;99.90;;;;;;5083260;28;20527;-74
2021/01/18 12:26:36;;;;;;;11.67;3.00;;;5.30;99.90;;;;;;5082573;28;20190;-73
2021/01/18 12:29:02;;;;;;;4.70;2.47;;;5.20;99.90;;;;;;5084290;28;20198;-74
2021/01/18 12:31:27;;;;;;;6.83;2.23;;;5.20;99.90;;;;;;5081283;28;20660;-73
2021/01/18 12:33:55;;;;;;;1.83;1.70;;;5.10;99.90;;;;;;5084672;28;20181;-73
2021/01/18 12:36:20;;;;;;;1.40;1.30;;;5.00;99.90;;;;;;5081653;28;20198;-74
2021/01/18 12:38:46;;;;;;;8.00;1.97;;;5.00;99.90;;;;;;5083512;28;20483;-73
2021/01/18 12:41:12;;;;;;;6.93;2.10;;;4.90;99.90;;;;;;5082345;28;20189;-74
2021/01/18 12:43:37;;;;;;;4.20;1.63;;;4.80;99.90;;;;;;5082404;28;20181;-74
2021/01/18 12:46:03;;;;;;;3.53;2.40;;;4.80;99.90;;;;;;5083754;28;20193;-73
2021/01/18 12:48:29;;;;;;;2.70;2.50;;;4.80;99.90;;;;;;5081319;28;20208;-75
2021/01/18 12:50:54;;;;;;;6.50;2.27;;;4.80;99.90;;;;;;5084282;28;20183;-74
2021/01/18 12:56:04;;;;;;;2.80;2.20;;;4.90;99.90;;;;;;5079146;28;20263;-76
2021/01/18 12:58:29;;;;;;;3.17;1.90;;;5.00;99.90;;;;;;5084288;28;20970;-74
2021/01/18 13:00:55;;;;;;;5.23;2.60;;;4.90;99.90;;;;;;5080457;28;20444;-73
2021/01/18 13:03:20;;;;;;;4.47;2.47;;;4.80;99.90;;;;;;5083917;28;20181;-74
2021/01/18 13:05:46;;;;;;;4.13;2.93;;;4.80;99.90;;;;;;5081578;28;20201;-72
2021/01/18 13:08:11;;;;;;;5.47;2.17;;;4.80;99.90;;;;;;5080830;28;20674;-74
2021/01/18 13:10:37;;;;;;;6.00;2.20;;;4.70;99.90;;;;;;5077746;28;20187;-74
2021/01/18 13:13:03;;;;;;;3.03;2.10;;;4.60;99.90;;;;;;5083413;28;20179;-73